Time;durP1;ratioP1;P1;durP2;ratioP2;P2;SDS_P1;SDS_P2;PMS_P1;PMS_P2;Temp;Humidity;BMP_temperature;BMP_pressure;BME280_temperature;BME280_humidity;BME280_pressure;Samples;Min_cycle;Max_cycle;Signal;HPM_P1;HPM_P2
2024/04/08 00:00:20;;;;;;;5.30;2.65;;;;;;;15.83;100.00;98025.41;6099480;19;20003;-72
2024/04/08 00:02:20;;;;;;;3.97;2.15;;;;;;;15.82;100.00;98029.41;6100564;19;20318;-71
2024/04/08 00:04:21;;;;;;;5.75;2.20;;;;;;;15.79;100.00;98025.44;6099247;19;20043;-71
2024/04/08 00:06:21;;;;;;;7.53;2.08;;;;;;;15.79;100.00;98035.81;6099753;19;20023;-71
2024/04/08 00:08:21;;;;;;;7.63;2.40;;;;;;;15.78;100.00;98017.50;6098287;19;20009;-72
2024/04/08 00:10:22;;;;;;;4.30;2.05;;;;;;;15.77;100.00;98024.31;6099632;19;22139;-71
2024/04/08 00:12:22;;;;;;;9.20;2.55;;;;;;;15.79;100.00;98025.44;6099510;19;20467;-71
2024/04/08 00:14:22;;;;;;;5.55;2.30;;;;;;;15.78;100.00;98025.88;6099812;19;20226;-71
2024/04/08 00:16:23;;;;;;;5.85;2.40;;;;;;;15.73;100.00;98022.38;6101340;19;20006;-71
2024/04/08 00:18:24;;;;;;;8.95;2.42;;;;;;;15.71;100.00;98019.19;6105817;19;19994;-72
2024/04/08 00:20:24;;;;;;;8.65;2.25;;;;;;;15.72;100.00;98026.38;6105726;19;20275;-72
2024/04/08 00:22:24;;;;;;;8.27;2.40;;;;;;;15.72;100.00;98011.63;6106762;19;20309;-72
2024/04/08 00:24:25;;;;;;;6.30;2.10;;;;;;;15.75;100.00;98019.16;6105467;19;20451;-72
2024/04/08 00:26:25;;;;;;;7.80;2.63;;;;;;;15.70;100.00;98019.63;6106276;19;20739;-72
2024/04/08 00:28:25;;;;;;;5.93;2.88;;;;;;;15.69;100.00;98023.63;6105992;19;20010;-71
2024/04/08 00:30:26;;;;;;;8.15;2.65;;;;;;;15.63;100.00;98020.53;6107101;19;20006;-71
2024/04/08 00:32:28;;;;;;;7.40;2.50;;;;;;;15.62;100.00;98015.38;6104911;19;20015;-72
2024/04/08 00:34:28;;;;;;;8.82;2.75;;;;;;;15.62;100.00;98027.31;6105418;19;20455;-72
2024/04/08 00:36:29;;;;;;;7.85;3.03;;;;;;;15.57;100.00;98015.84;6106167;19;20244;-72
2024/04/08 00:38:29;;;;;;;6.53;2.83;;;;;;;15.52;100.00;98014.31;6104173;19;20014;-72
2024/04/08 00:40:37;;;;;;;9.35;2.78;;;;;;;15.50;100.00;98010.38;6106009;19;20010;-72
2024/04/08 00:42:37;;;;;;;9.52;2.72;;;;;;;15.48;100.00;97999.66;6106022;19;20007;-71
2024/04/08 00:44:37;;;;;;;11.15;2.80;;;;;;;15.51;100.00;97998.00;6105382;19;20392;-71
2024/04/08 00:46:38;;;;;;;3.97;2.63;;;;;;;15.47;100.00;97995.25;6107918;19;20405;-71
2024/04/08 00:48:38;;;;;;;8.85;2.53;;;;;;;15.45;100.00;98001.28;6109143;19;20014;-71
2024/04/08 00:50:42;;;;;;;5.78;2.70;;;;;;;15.45;100.00;97992.91;6111348;19;20010;-71
2024/04/08 00:52:42;;;;;;;5.68;2.70;;;;;;;15.41;100.00;97989.41;6110763;19;20721;-71
2024/04/08 00:54:42;;;;;;;7.10;2.75;;;;;;;15.41;100.00;97986.63;6111644;19;20017;-71
2024/04/08 00:56:43;;;;;;;8.07;2.92;;;;;;;15.43;100.00;97988.97;6110445;19;20418;-71
2024/04/08 00:58:44;;;;;;;5.97;2.60;;;;;;;15.39;100.00;97989.03;6109742;19;20086;-71
2024/04/08 01:00:45;;;;;;;7.78;3.13;;;;;;;15.39;100.00;97988.22;6111451;19;20562;-71
2024/04/08 01:02:45;;;;;;;9.88;2.88;;;;;;;15.40;100.00;97987.03;6111668;19;20352;-71
2024/04/08 01:04:47;;;;;;;5.13;2.33;;;;;;;15.39;100.00;97983.47;6110200;19;20014;-71
2024/04/08 01:06:47;;;;;;;11.20;3.00;;;;;;;15.35;100.00;97976.34;6111698;19;20014;-71
2024/04/08 01:08:47;;;;;;;5.45;2.78;;;;;;;15.36;100.00;97977.94;6108505;19;20454;-71
2024/04/08 01:10:48;;;;;;;6.18;2.28;;;;;;;15.37;100.00;97965.56;6111000;19;20016;-71
2024/04/08 01:12:48;;;;;;;7.25;2.58;;;;;;;15.39;100.00;97966.75;6110816;19;20380;-71
2024/04/08 01:14:49;;;;;;;6.78;2.50;;;;;;;15.41;100.00;97972.69;6111248;19;20007;-71
2024/04/08 01:16:50;;;;;;;5.95;2.20;;;;;;;15.43;100.00;97972.25;6110045;19;20011;-71
2024/04/08 01:18:50;;;;;;;3.65;2.13;;;;;;;15.42;100.00;97965.09;6108973;19;20573;-71
2024/04/08 01:20:50;;;;;;;8.50;2.45;;;;;;;15.42;100.00;97970.66;6110320;19;20002;-71
2024/04/08 01:22:54;;;;;;;8.00;2.67;;;;;;;15.35;100.00;97971.56;6110132;19;20020;-71
2024/04/08 01:24:54;;;;;;;7.63;2.30;;;;;;;15.31;100.00;97968.06;6111013;19;20090;-71
2024/04/08 01:26:55;;;;;;;6.10;2.55;;;;;;;15.28;100.00;97966.09;6110131;19;20011;-71
2024/04/08 01:28:55;;;;;;;9.75;2.83;;;;;;;15.26;100.00;97971.31;6109306;19;20325;-71
2024/04/08 01:30:59;;;;;;;6.22;2.60;;;;;;;15.22;100.00;97961.41;6109511;19;20014;-71
2024/04/08 01:33:00;;;;;;;6.20;2.97;;;;;;;15.20;100.00;97966.63;6109747;19;20383;-71
2024/04/08 01:35:00;;;;;;;5.53;2.17;;;;;;;15.23;100.00;97963.81;6110630;19;20015;-71
2024/04/08 01:37:00;;;;;;;8.48;3.17;;;;;;;15.18;100.00;97967.06;6109458;19;20007;-71
2024/04/08 01:39:01;;;;;;;8.88;2.90;;;;;;;15.16;100.00;97977.84;6109294;19;20584;-71
2024/04/08 01:41:01;;;;;;;5.78;3.08;;;;;;;15.10;100.00;97960.00;6109922;19;20002;-71
2024/04/08 01:43:01;;;;;;;8.77;2.88;;;;;;;15.05;100.00;97966.03;6111011;19;20026;-71
2024/04/08 01:45:02;;;;;;;10.82;3.13;;;;;;;15.02;100.00;97966.91;6110399;19;20011;-71
2024/04/08 01:47:03;;;;;;;7.70;2.80;;;;;;;14.99;100.00;97964.97;6109265;19;20009;-71
2024/04/08 01:49:03;;;;;;;9.55;2.50;;;;;;;15.00;100.00;97963.75;6109703;19;20021;-71
2024/04/08 01:51:03;;;;;;;4.75;2.72;;;;;;;14.96;100.00;97965.78;6110365;19;20013;-71
2024/04/08 01:53:04;;;;;;;9.10;2.70;;;;;;;14.91;100.00;97969.06;6109865;19;20082;-71
2024/04/08 01:55:04;;;;;;;7.07;2.45;;;;;;;14.84;100.00;97965.16;6110028;19;20400;-71
2024/04/08 01:57:04;;;;;;;7.10;2.92;;;;;;;14.81;100.00;97965.19;6109690;19;20015;-71
2024/04/08 01:59:05;;;;;;;6.15;2.83;;;;;;;14.70;100.00;97964.56;6108808;19;20006;-71
2024/04/08 02:01:05;;;;;;;8.25;2.95;;;;;;;14.64;100.00;97958.66;6109232;19;20011;-71
2024/04/08 02:03:05;;;;;;;5.88;2.78;;;;;;;14.64;100.00;97957.84;6109988;19;20530;-71
2024/04/08 02:05:06;;;;;;;4.90;2.75;;;;;;;14.52;100.00;97957.22;6109220;19;20053;-71
2024/04/08 02:07:06;;;;;;;8.32;2.45;;;;;;;14.46;100.00;97964.44;6108831;19;20009;-71
2024/04/08 02:09:08;;;;;;;9.07;3.45;;;;;;;14.35;100.00;97958.19;6108812;19;20031;-71
2024/04/08 02:11:08;;;;;;;7.40;3.47;;;;;;;14.29;100.00;97949.50;6109072;19;20009;-71
2024/04/08 02:13:08;;;;;;;14.18;3.25;;;;;;;14.27;100.00;97954.72;6110307;19;20335;-72
2024/04/08 02:15:09;;;;;;;15.18;3.55;;;;;;;14.19;100.00;97958.00;6110063;19;20007;-71
2024/04/08 02:17:09;;;;;;;13.90;3.70;;;;;;;14.18;100.00;97953.63;6108161;19;20019;-71
2024/04/08 02:19:09;;;;;;;14.43;4.32;;;;;;;14.11;100.00;97948.94;6108619;19;20007;-71
2024/04/08 02:21:12;;;;;;;7.38;2.95;;;;;;;14.08;100.00;97943.41;6110047;19;20006;-71
2024/04/08 02:23:13;;;;;;;8.55;3.22;;;;;;;14.06;100.00;97954.94;6109485;19;21331;-71
2024/04/08 02:25:13;;;;;;;8.98;3.47;;;;;;;14.01;100.00;97947.84;6110156;19;20010;-71
2024/04/08 02:27:14;;;;;;;9.50;3.25;;;;;;;14.01;100.00;97945.06;6108415;19;20006;-71
2024/04/08 02:29:14;;;;;;;3.95;2.30;;;;;;;13.98;100.00;97953.44;6109834;19;20010;-71
2024/04/08 02:31:14;;;;;;;9.57;3.03;;;;;;;13.96;100.00;97942.72;6109210;19;20011;-71
2024/04/08 02:33:15;;;;;;;8.68;3.08;;;;;;;14.01;100.00;97944.28;6109338;19;20475;-71
2024/04/08 02:35:16;;;;;;;8.40;2.70;;;;;;;14.03;100.00;97945.44;6109560;19;20003;-71
2024/04/08 02:37:17;;;;;;;5.87;2.73;;;;;;;14.02;100.00;97946.63;6109685;19;20101;-71
2024/04/08 02:39:17;;;;;;;5.57;3.00;;;;;;;13.97;100.00;97949.88;6108009;19;20397;-71
2024/04/08 02:41:17;;;;;;;4.85;3.00;;;;;;;13.95;100.00;97955.06;6109455;19;19998;-71
2024/04/08 02:43:17;;;;;;;12.00;3.05;;;;;;;13.87;100.00;97945.19;6109694;19;20006;-72
2024/04/08 02:45:18;;;;;;;10.20;3.60;;;;;;;13.85;100.00;97944.03;6109279;19;20070;-72
2024/04/08 02:47:18;;;;;;;11.68;3.70;;;;;;;13.80;100.00;97939.72;6107687;19;20007;-72
2024/04/08 02:49:18;;;;;;;8.90;3.17;;;;;;;13.78;100.00;97928.22;6109357;19;20363;-71
2024/04/08 02:51:19;;;;;;;6.78;2.65;;;;;;;13.80;100.00;97925.03;6109343;19;20002;-71
2024/04/08 02:53:19;;;;;;;6.90;2.90;;;;;;;13.83;100.00;97927.78;6109694;19;20002;-71
2024/04/08 02:55:19;;;;;;;8.95;3.20;;;;;;;13.90;100.00;97919.38;6108924;19;20327;-71
2024/04/08 02:57:20;;;;;;;12.70;2.90;;;;;;;13.96;100.00;97922.47;6109104;19;20018;-71
2024/04/08 02:59:20;;;;;;;7.78;2.90;;;;;;;13.97;100.00;97915.69;6108054;19;20017;-71
2024/04/08 03:01:20;;;;;;;10.75;2.85;;;;;;;14.04;100.00;97898.94;6108835;19;20007;-71
2024/04/08 03:03:21;;;;;;;8.40;3.35;;;;;;;14.09;100.00;97884.59;6108155;19;20003;-71
2024/04/08 03:05:21;;;;;;;7.68;2.78;;;;;;;14.15;100.00;97884.88;6109066;19;20329;-71
2024/04/08 03:07:22;;;;;;;6.45;2.70;;;;;;;14.16;100.00;97894.84;6108373;19;20343;-71
2024/04/08 03:09:22;;;;;;;5.22;2.60;;;;;;;14.16;100.00;97911.53;6106965;19;20006;-71
2024/04/08 03:11:22;;;;;;;6.35;3.17;;;;;;;14.13;100.00;97909.56;6108453;19;20019;-71
2024/04/08 03:13:23;;;;;;;7.20;2.97;;;;;;;14.13;100.00;97906.78;6109009;19;20016;-71
2024/04/08 03:15:23;;;;;;;5.88;2.83;;;;;;;14.14;100.00;97891.66;6098709;19;20026;-71
2024/04/08 03:17:23;;;;;;;9.48;3.03;;;;;;;14.13;100.00;97892.88;6107742;19;19999;-71
2024/04/08 03:19:24;;;;;;;8.13;3.08;;;;;;;14.08;100.00;97883.00;6107437;19;20002;-71
2024/04/08 03:21:24;;;;;;;8.00;2.60;;;;;;;14.06;100.00;97877.84;6108204;19;20013;-71
2024/04/08 03:23:25;;;;;;;8.80;3.10;;;;;;;14.05;100.00;97881.03;6108349;19;20007;-71
2024/04/08 03:25:25;;;;;;;9.60;3.33;;;;;;;14.03;100.00;97884.25;6108210;19;20009;-71
2024/04/08 03:27:26;;;;;;;9.27;2.95;;;;;;;14.04;100.00;97876.69;6107259;19;20081;-71
2024/04/08 03:29:26;;;;;;;9.00;3.17;;;;;;;14.03;100.00;97880.69;6106806;19;20028;-71
2024/04/08 03:31:27;;;;;;;9.32;3.53;;;;;;;14.06;100.00;97882.63;6108388;19;20483;-71
2024/04/08 03:33:28;;;;;;;14.80;3.70;;;;;;;14.17;100.00;97882.50;6105168;19;20007;-71
2024/04/08 03:35:28;;;;;;;14.75;3.67;;;;;;;14.17;100.00;97877.72;6108446;19;20494;-71
2024/04/08 03:37:28;;;;;;;12.57;3.45;;;;;;;14.08;100.00;97893.34;6107268;19;20027;-71
2024/04/08 03:39:29;;;;;;;6.90;3.28;;;;;;;14.06;100.00;97893.75;6107586;19;20033;-71
2024/04/08 03:41:30;;;;;;;10.80;3.95;;;;;;;14.05;100.00;97897.72;6108032;19;20574;-71
2024/04/08 03:43:30;;;;;;;8.52;3.08;;;;;;;13.98;100.00;97903.38;6106427;19;20010;-71
2024/04/08 03:45:32;;;;;;;11.02;3.30;;;;;;;13.93;100.00;97918.53;6106936;19;20010;-71
2024/04/08 03:47:32;;;;;;;6.57;2.72;;;;;;;13.82;100.00;97928.16;6106871;19;20007;-71
2024/04/08 03:49:32;;;;;;;8.40;2.45;;;;;;;13.81;100.00;97915.47;6106856;19;20047;-71
2024/04/08 03:51:33;;;;;;;6.88;2.88;;;;;;;13.77;100.00;97916.31;6107801;19;20010;-71
2024/04/08 03:53:33;;;;;;;9.27;3.03;;;;;;;13.75;100.00;97915.16;6107255;19;20014;-71
2024/04/08 03:55:34;;;;;;;7.78;2.75;;;;;;;13.74;100.00;97899.69;6106829;19;19999;-70
2024/04/08 03:57:34;;;;;;;11.90;3.75;;;;;;;13.66;100.00;97896.19;6106410;19;20011;-71
2024/04/08 03:59:34;;;;;;;8.75;3.35;;;;;;;13.64;100.00;97892.22;6106542;19;20011;-71
2024/04/08 04:01:35;;;;;;;10.27;2.90;;;;;;;13.57;100.00;97887.53;6106603;19;20003;-71
2024/04/08 04:03:36;;;;;;;7.43;3.55;;;;;;;13.49;100.00;97895.16;6107442;19;20013;-71
2024/04/08 04:05:36;;;;;;;13.35;3.38;;;;;;;13.47;100.00;97914.22;6106599;19;20418;-71
2024/04/08 04:07:37;;;;;;;11.90;3.45;;;;;;;13.47;100.00;97899.53;6105993;19;20017;-71
2024/04/08 04:09:38;;;;;;;10.18;3.30;;;;;;;13.51;100.00;97897.53;6106073;19;20026;-71
2024/04/08 04:11:38;;;;;;;8.57;3.10;;;;;;;13.55;100.00;97891.91;6106255;19;20006;-71
2024/04/08 04:13:38;;;;;;;12.77;3.20;;;;;;;13.55;100.00;97889.13;6106251;19;20026;-71
2024/04/08 04:15:39;;;;;;;6.32;2.83;;;;;;;13.52;100.00;97890.75;6104607;19;20007;-71
2024/04/08 04:17:39;;;;;;;7.38;3.55;;;;;;;13.49;100.00;97889.59;6099623;19;20010;-71
2024/04/08 04:19:40;;;;;;;8.63;2.78;;;;;;;13.51;100.00;97885.63;6099135;19;20041;-71
2024/04/08 04:21:40;;;;;;;10.02;2.90;;;;;;;13.54;100.00;97882.78;6101150;19;20040;-71
2024/04/08 04:23:40;;;;;;;12.30;3.67;;;;;;;13.46;100.00;97882.06;6104701;19;20006;-71
2024/04/08 04:25:41;;;;;;;14.55;4.57;;;;;;;13.41;100.00;97879.75;6103116;19;20007;-71
2024/04/08 04:27:41;;;;;;;7.97;3.17;;;;;;;13.39;100.00;97890.47;6104053;19;20010;-71
2024/04/08 04:29:42;;;;;;;7.30;2.90;;;;;;;13.37;100.00;97890.09;6104274;19;20312;-71
2024/04/08 04:31:43;;;;;;;9.60;3.63;;;;;;;13.36;100.00;97905.19;6105104;19;20041;-71
2024/04/08 04:33:44;;;;;;;10.50;3.43;;;;;;;13.36;100.00;97923.84;6104751;19;20018;-71
2024/04/08 04:35:58;;;;;;;6.97;2.90;;;;;;;13.37;100.00;97940.09;6104787;19;20566;-71
2024/04/08 04:37:58;;;;;;;5.57;3.20;;;;;;;13.47;100.00;97950.34;6102930;19;20483;-71
2024/04/08 04:39:59;;;;;;;9.52;3.53;;;;;;;13.47;100.00;97969.78;6103438;19;19999;-71
2024/04/08 04:41:59;;;;;;;10.52;3.53;;;;;;;13.48;100.00;97976.13;6104263;19;19998;-71
2024/04/08 04:43:59;;;;;;;6.35;3.03;;;;;;;13.56;100.00;97999.09;6103627;19;20006;-71
2024/04/08 04:46:00;;;;;;;12.68;3.08;;;;;;;13.58;100.00;97993.94;6102950;19;20011;-71
2024/04/08 04:48:00;;;;;;;7.65;2.88;;;;;;;13.64;100.00;97995.06;6104120;19;20335;-71
2024/04/08 04:50:01;;;;;;;7.95;3.13;;;;;;;13.64;100.00;98006.97;6103051;19;20010;-71
2024/04/08 04:52:02;;;;;;;6.90;3.28;;;;;;;13.70;100.00;98004.56;6103939;19;20007;-71
2024/04/08 04:54:04;;;;;;;10.90;3.10;;;;;;;13.68;100.00;98004.97;6104113;19;20016;-71
2024/04/08 04:56:04;;;;;;;14.10;3.30;;;;;;;13.72;100.00;98004.94;6103165;19;20010;-71
2024/04/08 04:58:05;;;;;;;14.25;3.53;;;;;;;13.73;100.00;98010.06;6102863;19;20020;-71
2024/04/08 05:00:06;;;;;;;13.35;3.28;;;;;;;13.82;100.00;98019.94;6102721;19;20458;-71
2024/04/08 05:02:07;;;;;;;6.82;3.17;;;;;;;13.82;100.00;98015.19;6104311;19;20537;-71
2024/04/08 05:04:08;;;;;;;7.30;3.45;;;;;;;13.92;100.00;98008.72;6104361;19;20002;-71
2024/04/08 05:06:08;;;;;;;13.95;3.53;;;;;;;13.89;100.00;98009.53;6103244;19;20006;-71
2024/04/08 05:08:08;;;;;;;10.13;4.05;;;;;;;13.85;100.00;98005.22;6103652;19;20007;-71
2024/04/08 05:10:09;;;;;;;6.93;3.67;;;;;;;13.86;100.00;98001.25;6101750;19;20010;-71
2024/04/08 05:12:09;;;;;;;8.18;3.92;;;;;;;13.77;100.00;98002.50;6103609;19;20007;-71
2024/04/08 05:14:09;;;;;;;8.38;4.18;;;;;;;13.73;100.00;97998.94;6103417;19;20419;-71
2024/04/08 05:16:11;;;;;;;9.07;4.35;;;;;;;13.71;100.00;97984.69;6107259;19;20011;-71
2024/04/08 05:18:11;;;;;;;10.55;3.97;;;;;;;13.70;100.00;97965.63;6109358;19;20011;-71
2024/04/08 05:20:11;;;;;;;11.27;4.25;;;;;;;13.73;100.00;97979.47;6109690;19;20034;-71
2024/04/08 05:22:16;;;;;;;15.60;4.43;;;;;;;13.67;100.00;97983.94;6110774;19;20007;-71
2024/04/08 05:24:16;;;;;;;11.15;3.88;;;;;;;13.69;100.00;97984.31;6110176;19;20009;-71
2024/04/08 05:26:17;;;;;;;8.73;3.95;;;;;;;13.70;100.00;97976.75;6109522;19;20006;-71
2024/04/08 05:28:18;;;;;;;10.90;4.47;;;;;;;13.67;100.00;97966.47;6108830;19;20021;-71
2024/04/08 05:30:18;;;;;;;7.95;3.70;;;;;;;13.69;100.00;97975.97;6110575;19;20017;-71
2024/04/08 05:32:19;;;;;;;10.38;4.03;;;;;;;13.75;100.00;97973.53;6110424;19;20002;-71
2024/04/08 05:34:19;;;;;;;17.70;4.88;;;;;;;13.83;100.00;97965.91;6109825;19;20030;-71
2024/04/08 05:36:19;;;;;;;13.13;4.53;;;;;;;13.85;100.00;97969.06;6107828;19;20111;-71
2024/04/08 05:38:19;;;;;;;9.48;3.83;;;;;;;13.87;100.00;97969.44;6109232;19;20007;-71
2024/04/08 05:40:20;;;;;;;14.05;3.67;;;;;;;13.88;100.00;97971.03;6110303;19;20010;-71
2024/04/08 05:42:20;;;;;;;10.85;4.00;;;;;;;13.92;100.00;97975.34;6110404;19;20018;-71
2024/04/08 05:44:20;;;;;;;11.07;4.20;;;;;;;13.96;100.00;97978.88;6110475;19;20482;-71
2024/04/08 05:46:21;;;;;;;11.07;3.75;;;;;;;13.98;100.00;97972.91;6110656;19;20026;-71
2024/04/08 05:48:21;;;;;;;7.00;3.72;;;;;;;14.00;100.00;97976.88;6109438;19;20047;-72
2024/04/08 05:50:23;;;;;;;10.38;4.35;;;;;;;14.04;100.00;97977.59;6111909;19;20015;-71
2024/04/08 05:52:23;;;;;;;12.52;4.68;;;;;;;14.09;100.00;97970.03;6110900;19;20017;-71
2024/04/08 05:54:24;;;;;;;7.70;3.70;;;;;;;14.11;100.00;97970.41;6110943;19;20110;-71
2024/04/08 05:56:24;;;;;;;5.95;3.65;;;;;;;14.16;100.00;97965.19;6110610;19;20017;-71
2024/04/08 05:58:24;;;;;;;11.82;4.10;;;;;;;14.22;100.00;97943.22;6109942;19;20006;-71
2024/04/08 06:00:24;;;;;;;8.90;3.58;;;;;;;14.25;100.00;97925.72;6110621;19;20034;-71
2024/04/08 06:02:25;;;;;;;14.18;4.43;;;;;;;14.28;100.00;97919.31;6111572;19;20011;-71
2024/04/08 06:04:25;;;;;;;10.30;4.18;;;;;;;14.30;100.00;97928.03;6109175;19;20587;-71
2024/04/08 06:06:25;;;;;;;14.65;5.03;;;;;;;14.31;100.00;97924.88;6110617;19;20102;-71
2024/04/08 06:08:27;;;;;;;13.15;4.65;;;;;;;14.32;100.00;97911.72;6106075;19;20014;-71
2024/04/08 06:10:30;;;;;;;9.77;4.20;;;;;;;14.34;100.00;97912.88;6110657;19;20122;-71
2024/04/08 06:12:31;;;;;;;8.02;4.05;;;;;;;14.37;100.00;97913.25;6109983;19;20322;-71
2024/04/08 06:14:32;;;;;;;8.18;4.75;;;;;;;14.36;100.00;97912.47;6109992;19;20013;-71
2024/04/08 06:16:32;;;;;;;6.90;3.78;;;;;;;14.38;100.00;97896.13;6109202;19;20002;-71
2024/04/08 06:18:32;;;;;;;8.40;4.00;;;;;;;14.39;100.00;97908.84;6109113;19;20463;-71
2024/04/08 06:20:32;;;;;;;6.43;4.05;;;;;;;14.41;100.00;97937.06;6109340;19;20012;-71
2024/04/08 06:22:35;;;;;;;9.77;4.90;;;;;;;14.43;100.00;97954.13;6109512;19;20006;-71
2024/04/08 06:24:35;;;;;;;10.38;4.45;;;;;;;14.46;100.00;98011.75;6108684;19;20011;-71
2024/04/08 06:26:36;;;;;;;8.65;4.57;;;;;;;14.57;100.00;98012.44;6108928;19;20026;-71
2024/04/08 06:28:36;;;;;;;14.35;4.35;;;;;;;14.59;100.00;97971.06;6108380;19;20006;-71
2024/04/08 06:30:36;;;;;;;16.40;4.88;;;;;;;14.58;100.00;98010.44;6109617;19;20018;-71
2024/04/08 06:32:37;;;;;;;10.65;3.95;;;;;;;14.62;100.00;98005.63;6108744;19;20015;-71
2024/04/08 06:34:37;;;;;;;11.10;3.97;;;;;;;14.67;100.00;97996.03;6109011;19;20336;-71
2024/04/08 06:36:37;;;;;;;4.68;3.47;;;;;;;14.75;100.00;98012.22;6108701;19;20007;-71
2024/04/08 06:38:38;;;;;;;7.47;3.35;;;;;;;14.80;100.00;98010.94;6108032;19;20011;-71
2024/04/08 06:40:39;;;;;;;6.13;4.03;;;;;;;14.88;100.00;98002.09;6109022;19;20013;-71
2024/04/08 06:42:39;;;;;;;7.78;3.42;;;;;;;14.97;100.00;98000.78;6109398;19;20006;-71
2024/04/08 06:44:40;;;;;;;10.50;3.40;;;;;;;15.04;100.00;97979.19;6107376;19;20010;-71
2024/04/08 06:46:40;;;;;;;6.53;3.88;;;;;;;15.10;100.00;97954.44;6110801;19;20006;-71
2024/04/08 06:48:40;;;;;;;9.43;3.72;;;;;;;15.11;100.00;97956.81;6107070;19;20021;-71
2024/04/08 06:50:41;;;;;;;10.57;3.70;;;;;;;15.16;100.00;97970.28;6109763;19;20219;-71
2024/04/08 06:52:41;;;;;;;10.13;3.80;;;;;;;15.20;100.00;97984.13;6108912;19;20003;-71
2024/04/08 06:54:43;;;;;;;6.10;3.65;;;;;;;15.27;100.00;97975.69;6107455;19;20010;-71
2024/04/08 06:56:43;;;;;;;7.03;3.78;;;;;;;15.39;100.00;97974.28;6108615;19;20002;-71
2024/04/08 06:58:43;;;;;;;9.32;4.38;;;;;;;15.49;100.00;97964.19;6107199;19;20528;-71
2024/04/08 07:00:45;;;;;;;13.98;4.18;;;;;;;15.59;100.00;97941.72;6109028;19;20326;-71
2024/04/08 07:02:46;;;;;;;10.57;4.25;;;;;;;15.70;100.00;97947.91;6107750;19;19998;-71
2024/04/08 07:04:46;;;;;;;7.53;4.13;;;;;;;15.80;100.00;97962.88;6109575;19;20005;-71
2024/04/08 07:06:47;;;;;;;6.40;3.30;;;;;;;15.88;100.00;97967.13;6108574;19;20046;-71
2024/04/08 07:08:47;;;;;;;9.30;3.90;;;;;;;16.00;100.00;97966.50;6107062;19;20011;-71
2024/04/08 07:10:47;;;;;;;9.20;4.10;;;;;;;16.11;100.00;97966.31;6108471;19;20003;-71
2024/04/08 07:12:48;;;;;;;8.02;3.63;;;;;;;16.19;100.00;97959.38;6107486;19;20773;-71
2024/04/08 07:14:54;;;;;;;9.45;2.97;;;;;;;16.31;100.00;97965.56;6106961;19;20002;-71
2024/04/08 07:16:55;;;;;;;10.50;3.72;;;;;;;16.41;100.00;97962.53;6107450;19;20018;-71
2024/04/08 07:18:55;;;;;;;9.15;3.30;;;;;;;16.50;100.00;97961.97;6105782;19;20339;-71
2024/04/08 07:20:55;;;;;;;9.55;3.65;;;;;;;16.62;100.00;97949.34;6106848;19;20007;-71
2024/04/08 07:22:57;;;;;;;16.17;3.90;;;;;;;16.73;100.00;97933.97;6104743;19;20013;-71
2024/04/08 07:24:57;;;;;;;9.85;3.42;;;;;;;16.80;100.00;97916.28;6106756;19;20006;-71
2024/04/08 07:26:57;;;;;;;8.82;2.80;;;;;;;16.84;100.00;97923.34;6106738;19;20006;-71
2024/04/08 07:28:58;;;;;;;7.57;3.35;;;;;;;16.93;100.00;97944.31;6107564;19;20295;-71
2024/04/08 07:30:58;;;;;;;10.70;3.13;;;;;;;17.01;100.00;97937.34;6108194;19;20006;-71
2024/04/08 07:32:58;;;;;;;9.07;3.28;;;;;;;17.09;100.00;97949.94;6107445;19;20007;-71
2024/04/08 07:34:59;;;;;;;8.32;3.05;;;;;;;17.20;100.00;97941.28;6108117;19;20038;-71
2024/04/08 07:36:59;;;;;;;11.27;3.95;;;;;;;17.28;100.00;97949.06;6108013;19;20010;-71
2024/04/08 07:38:59;;;;;;;9.15;3.63;;;;;;;17.30;100.00;97949.44;6105733;19;20034;-71
2024/04/08 07:41:00;;;;;;;8.00;4.47;;;;;;;17.29;100.00;97958.25;6108323;19;20292;-71
2024/04/08 07:43:01;;;;;;;11.32;4.20;;;;;;;17.24;100.00;97948.41;6108338;19;20074;-71
2024/04/08 07:45:01;;;;;;;14.45;3.75;;;;;;;17.26;100.00;97943.16;6107473;19;20003;-71
2024/04/08 07:47:02;;;;;;;9.88;3.80;;;;;;;17.33;100.00;97940.19;6103547;19;20039;-71
2024/04/08 07:49:02;;;;;;;13.23;3.55;;;;;;;17.35;100.00;97948.91;6103208;19;20003;-71
2024/04/08 07:51:03;;;;;;;7.75;3.17;;;;;;;17.29;100.00;97956.25;6106225;19;20034;-71
2024/04/08 07:53:04;;;;;;;17.30;4.03;;;;;;;17.30;100.00;97960.63;6106816;19;20002;-71
2024/04/08 07:55:05;;;;;;;10.10;3.38;;;;;;;17.26;100.00;97965.50;6105698;19;20056;-71
2024/04/08 07:57:06;;;;;;;9.80;4.13;;;;;;;17.29;100.00;97963.84;6112471;19;20014;-71
2024/04/08 07:59:06;;;;;;;8.77;3.95;;;;;;;17.37;100.00;97960.44;6112650;19;20017;-71
2024/04/08 08:01:07;;;;;;;13.13;4.30;;;;;;;17.44;100.00;97958.72;6112444;19;20011;-71
2024/04/08 08:03:07;;;;;;;10.07;3.50;;;;;;;17.51;100.00;97945.34;6112478;19;20014;-71
2024/04/08 08:05:08;;;;;;;11.13;3.65;;;;;;;17.51;100.00;97950.16;6107570;19;20400;-71
2024/04/08 08:07:08;;;;;;;6.50;3.50;;;;;;;17.56;100.00;97947.63;6109446;19;20006;-71
2024/04/08 08:09:08;;;;;;;4.80;2.90;;;;;;;17.60;100.00;97945.50;6109801;19;20020;-71
2024/04/08 08:11:10;;;;;;;8.68;3.83;;;;;;;17.63;100.00;97943.88;6112777;19;20343;-71
2024/04/08 08:13:11;;;;;;;15.88;3.78;;;;;;;17.74;100.00;97949.22;6110436;19;20466;-71
2024/04/08 08:15:13;;;;;;;11.68;3.38;;;;;;;17.78;100.00;97961.88;6099243;19;20329;-71
2024/04/08 08:17:13;;;;;;;;;;;;;;;17.85;100.00;97961.69;6107117;19;20009;-71
2024/04/08 08:19:14;;;;;;;12.23;3.50;;;;;;;18.01;100.00;97949.69;6108982;19;20259;-71
2024/04/08 08:21:14;;;;;;;6.18;3.53;;;;;;;18.19;100.00;97946.41;6111876;19;20278;-71
2024/04/08 08:23:15;;;;;;;11.30;3.85;;;;;;;18.29;100.00;97941.72;6112745;19;20016;-71
2024/04/08 08:25:15;;;;;;;9.85;4.75;;;;;;;18.38;100.00;97944.69;6111624;19;20056;-71
2024/04/08 08:27:16;;;;;;;10.65;3.97;;;;;;;18.46;100.00;97937.66;6110834;19;20016;-71
2024/04/08 08:29:16;;;;;;;15.18;3.58;;;;;;;18.53;100.00;97935.44;6111972;19;20014;-71
2024/04/08 08:31:17;;;;;;;11.65;4.13;;;;;;;18.68;100.00;97937.84;6112018;19;20086;-71
2024/04/08 08:33:17;;;;;;;14.52;4.07;;;;;;;18.84;100.00;97932.16;6112259;19;20011;-71
2024/04/08 08:35:18;;;;;;;5.30;3.08;;;;;;;19.01;100.00;97932.84;6110890;19;20086;-71
2024/04/08 08:37:18;;;;;;;9.55;3.25;;;;;;;19.09;100.00;97934.97;6111653;19;20013;-71
2024/04/08 08:39:18;;;;;;;8.70;3.25;;;;;;;19.09;100.00;97936.97;6111375;19;20383;-71
2024/04/08 08:41:22;;;;;;;10.50;3.00;;;;;;;19.11;100.00;97928.13;6111700;19;20010;-71
2024/04/08 08:43:29;;;;;;;7.40;3.03;;;;;;;19.17;100.00;97940.34;6109994;19;20003;-71
2024/04/08 08:45:29;;;;;;;7.20;3.22;;;;;;;19.22;100.00;97931.38;6112434;19;20029;-71
2024/04/08 08:47:30;;;;;;;11.55;3.50;;;;;;;19.25;100.00;97911.63;6112378;19;20007;-71
2024/04/08 08:49:30;;;;;;;8.23;2.90;;;;;;;19.32;100.00;97933.84;6110721;19;20014;-71
2024/04/08 08:51:32;;;;;;;13.93;3.67;;;;;;;19.40;100.00;97930.81;6111964;19;20431;-71
2024/04/08 08:53:32;;;;;;;8.30;3.00;;;;;;;19.53;100.00;97915.53;6111358;19;20007;-71
2024/04/08 08:55:32;;;;;;;8.60;2.88;;;;;;;19.58;100.00;97917.00;6110783;19;20042;-71
2024/04/08 08:57:33;;;;;;;9.98;3.00;;;;;;;19.62;100.00;97923.28;6110875;19;20491;-71
2024/04/08 08:59:34;;;;;;;9.55;3.15;;;;;;;19.76;100.00;97917.19;6110198;19;20398;-71
2024/04/08 09:01:35;;;;;;;6.47;2.67;;;;;;;19.90;100.00;97915.91;6112045;19;20066;-71
2024/04/08 09:03:36;;;;;;;11.63;3.28;;;;;;;20.03;100.00;97925.09;6110340;19;20003;-71
2024/04/08 09:05:36;;;;;;;7.72;2.83;;;;;;;20.15;100.00;97918.63;6111118;19;20002;-71
2024/04/08 09:07:36;;;;;;;17.80;3.97;;;;;;;20.23;100.00;97926.78;6109605;19;20013;-71
2024/04/08 09:09:37;;;;;;;15.38;3.20;;;;;;;20.31;100.00;97925.28;6109900;19;20510;-71
2024/04/08 09:11:45;;;;;;;8.95;2.72;;;;;;;20.44;100.00;97932.47;6111412;19;20014;-71
2024/04/08 09:13:47;;;;;;;12.80;2.88;;;;;;;20.56;100.00;97916.75;6110522;19;20002;-71
2024/04/08 09:15:49;;;;;;;16.42;3.17;;;;;;;20.62;100.00;97919.78;6108197;19;20003;-71
2024/04/08 09:17:49;;;;;;;9.63;2.20;;;;;;;20.62;92.01;97914.16;6103608;19;20355;-71